Archival Weather

Norman Y Mineta San Jose Intl

San Jose, California (KSJC)

Report from: Wednesday, February 28, 2024 1:53 AM PST
Current time: Saturday, June 22, 2024 1:58 AM PDT

Current weather – Weather history – Daily summaries
Weather forecast

Temperature6.7°C (44.1°F)
Wind chill5.3°C (41.5°F)
Dew point2.2°C (36.0°F)
Winds 4 kts (2.1 m/s, 4.6 mph) Southeast (140°)
Visibility10 mi. (16.1 km)
Clouds Sky clear
Altimeter30.09 in.Hg (1019 mB)
Relative humidity73 %
Density altitude-1,084 ft. (-331 m)
Sea-level pressure101.9 kPa (1019 mB, 30.09 in.Hg)
Remarks Fully automated report
Automated weather observing station with precipitation discriminator
Flight conditions Visual Meteorological Conditions
Raw dataKSJC 280953Z AUTO 14004KT 10SM CLR 07/02 A3009 RMK AO2 SLP189 T00670022
An error has occurred. This application may no longer respond until reloaded. Reload 🗙